METAR Data
IDs: Format: Raw Decoded Include TAF

Data at: 1752 UTC 21 Sep 2018

KELA 211735Z AUTO 13004KT 10SM SCT024 SCT039 SCT060 29/25 A2995 RMK AO2 LTG DSNT SE P0007 T02910253
KELA 211715Z AUTO 15009G17KT 4SM +RA SCT023 BKN028 OVC041 29/26 A2996 RMK AO2 P0007 T02870260
KELA 211655Z AUTO 17009G14KT 10SM BKN028 BKN033 BKN042 32/26 A2996 RMK AO2 T03220260
KELA 211635Z AUTO 15010G15KT 10SM SCT022 32/26 A2997 RMK AO2 LTG DSNT E T03170260
KELA 211615Z AUTO 18010KT 10SM SCT019 SCT024 SCT037 32/26 A2997 RMK AO2 T03170264
KELA 211555Z AUTO 16011G14KT 10SM SCT016 SCT021 SCT037 31/27 A2996 RMK AO2 T03120268
KELA 211535Z AUTO 16010G15KT 10SM BKN014 BKN021 31/27 A2996 RMK AO2 T03110270
KELA 211515Z AUTO 16009KT 10SM SCT014 BKN022 31/27 A2997 RMK AO2 T03050272
KELA 211455Z AUTO 16007KT 10SM SCT010 30/27 A2996 RMK AO2 T02960270
KELA 211435Z AUTO 16007KT 10SM SCT009 29/27 A2996 RMK AO2 T02900266
KELA 211415Z AUTO 12003KT 10SM CLR 28/26 A2997 RMK AO2 T02780264
KELA 211355Z AUTO 12004KT 10SM CLR 27/26 A2997 RMK AO2 T02680260
KELA 211335Z AUTO 11003KT 10SM CLR 27/26 A2996 RMK AO2 T02680260
KELA 211315Z AUTO 11003KT 7SM CLR 27/26 A2995 RMK AO2 T02650260
KELA 211255Z AUTO 00000KT 7SM CLR 26/26 A2995 RMK AO2 T02600256
KELA 211235Z AUTO 11004KT 7SM CLR 26/26 A2994 RMK AO2 T02590255
KELA 211215Z AUTO 12003KT 7SM CLR 26/26 A2994 RMK AO2 T02600255
KELA 211155Z AUTO 12004KT 7SM CLR 26/25 A2994 RMK AO2 70031 T02570253 10263 20257
KELA 211135Z AUTO 12003KT 7SM CLR 26/26 A2994 RMK AO2 T02580255
KELA 211115Z AUTO 13003KT 7SM -RA CLR 26/25 A2993 RMK AO2 T02570254
KELA 211055Z AUTO 00000KT 7SM CLR 26/25 A2993 RMK AO2 T02570253
KELA 211035Z AUTO 00000KT 10SM CLR 26/26 A2993 RMK AO2 T02600255
KELA 211015Z AUTO 00000KT 10SM CLR 26/26 A2992 RMK AO2 LTG DSNT NW T02600255
KELA 210955Z AUTO 11003KT 10SM CLR 26/26 A2992 RMK AO2 T02600255
KELA 210935Z AUTO 11003KT 10SM SCT018 SCT023 26/26 A2992 RMK AO2 T02600255
KELA 210915Z AUTO 12004KT 10SM SCT017 SCT024 26/26 A2992 RMK AO2 T02600255
KELA 210855Z AUTO 00000KT 10SM SCT018 SCT023 26/26 A2992 RMK AO2 T02600255
KELA 210835Z AUTO 00000KT 10SM SCT018 SCT023 26/26 A2993 RMK AO2 T02600255
KELA 210815Z AUTO 00000KT 10SM CLR 26/26 A2993 RMK AO2 T02600255
KELA 210755Z AUTO 15003KT 10SM CLR 26/25 A2993 RMK AO2 T02600253
KELA 210735Z AUTO 14004KT 10SM CLR 26/25 A2993 RMK AO2 T02600253
KELA 210715Z AUTO 15003KT 10SM CLR 26/25 A2993 RMK AO2 T02610252
KELA 210655Z AUTO 15004KT 10SM CLR 26/25 A2994 RMK AO2 T02610252
KELA 210635Z AUTO 14005KT 10SM CLR 26/25 A2994 RMK AO2 T02620253
KELA 210615Z AUTO 13004KT 10SM CLR 26/25 A2994 RMK AO2 T02630252
KELA 210555Z AUTO 13004KT 10SM CLR 26/26 A2995 RMK AO2 T02630255 10282 20263 403250236
KELA 210535Z AUTO 12003KT 10SM SCT020 SCT026 SCT031 26/26 A2995 RMK AO2 T02630255
KELA 210515Z AUTO 13004KT 10SM BKN020 BKN026 BKN031 26/26 A2995 RMK AO2 T02640255
KELA 210455Z AUTO 14003KT 10SM SCT018 SCT025 SCT031 27/26 A2997 RMK AO2 T02650255
KELA 210435Z AUTO 00000KT 10SM SCT021 27/26 A2997 RMK AO2 T02650255
KELA 210415Z AUTO 14003KT 10SM CLR 27/26 A2996 RMK AO2 T02650255
KELA 210355Z AUTO 15004KT 10SM CLR 27/26 A2996 RMK AO2 T02660255
KELA 210335Z AUTO 13004KT 10SM CLR 27/26 A2996 RMK AO2 T02670255
KELA 210315Z AUTO 15004KT 10SM CLR 27/26 A2995 RMK AO2 T02660255
KELA 210250Z AUTO 15003KT 10SM CLR 27/26 A2994 RMK AO2 T02670255
KELA 210235Z AUTO 14004KT 10SM CLR 27/26 A2994 RMK AO2 T02690255
KELA 210215Z AUTO 15005KT 10SM CLR 27/26 A2993 RMK AO2 T02710255
KELA 210155Z AUTO 15005KT 10SM CLR 27/26 A2992 RMK AO2 T02710255
KELA 210135Z AUTO 15006KT 10SM CLR 27/26 A2992 RMK AO2 T02730256
KELA 210115Z AUTO 17004KT 10SM CLR 28/26 A2993 RMK AO2 T02750255
KELA 210055Z AUTO 17004KT 10SM CLR 28/26 A2992 RMK AO2 T02750256
KELA 210035Z AUTO 16004KT 10SM SCT029 SCT035 28/26 A2992 RMK AO2 T02770256
KELA 210015Z AUTO 17005KT 10SM -RA SCT029 BKN035 BKN055 28/26 A2992 RMK AO2 LTG DSNT N AND NE T02770257
KELA 202355Z AUTO 15004KT 10SM -RA BKN033 BKN055 OVC090 28/26 A2991 RMK AO2 T02820256 10325 20282
KELA 202335Z AUTO 15003KT 10SM SCT033 SCT055 SCT075 29/26 A2992 RMK AO2 LTG DSNT N T02880256
KELA 202315Z AUTO 16003KT 10SM CLR 29/26 A2991 RMK AO2 LTG DSNT NE AND E T02900255
KELA 202255Z AUTO 18006KT 10SM CLR 29/25 A2990 RMK AO2 LTG DSNT N THRU E T02930252
KELA 202235Z AUTO 19007KT 10SM -RA CLR 30/25 A2990 RMK AO2 LTG DSNT NW THRU NE T02970248
KELA 202215Z AUTO 19009KT 10SM CLR 30/25 A2990 RMK AO2 LTG DSNT N AND E T03010247
KELA 202155Z AUTO 18011G14KT 10SM SCT043 SCT055 SCT100 31/25 A2989 RMK AO2 LTG DSNT N AND NW T03100247
KELA 202135Z AUTO 18009KT 10SM SCT038 SCT048 BKN100 31/25 A2989 RMK AO2 LTG DSNT NW T03080245
KELA 202115Z AUTO 17010G15KT 10SM SCT030 SCT050 32/25 A2989 RMK AO2 LTG DSNT SW AND W T03190246
KELA 202055Z AUTO 17008KT 10SM SCT030 SCT037 SCT050 32/25 A2989 RMK AO2 LTG DSNT NE AND W T03180248
KELA 202035Z AUTO 13008KT 10SM SCT031 SCT040 SCT048 31/25 A2990 RMK AO2 LTG DSNT W T03070252
KELA 202015Z AUTO 13009KT 10SM SCT033 SCT039 32/26 A2990 RMK AO2 LTG DSNT ALQS T03210256
KELA 201955Z AUTO 15007KT 10SM SCT033 32/25 A2991 RMK AO2 LTG DSNT N AND SW T03150252
KELA 201935Z AUTO 15007KT 10SM SCT030 31/25 A2992 RMK AO2 LTG DSNT N AND NE T03140249
KELA 201915Z AUTO 17008KT 10SM SCT026 SCT032 31/25 A2994 RMK AO2 LTG DSNT N THRU E T03080248
KELA 201855Z AUTO 15007KT 10SM SCT022 31/25 A2994 RMK AO2 LTG DSNT W T03120252
KELA 201835Z AUTO 15008KT 10SM SCT020 31/26 A2995 RMK AO2 LTG DSNT N T03100258
KELA 201815Z AUTO 16007KT 10SM CLR 30/26 A2996 RMK AO2 LTG DSNT E T03010257
KELA 201755Z AUTO 18009KT 10SM SCT018 30/25 A2997 RMK AO2 LTG DSNT E AND SE 60031 T02960253 10306 20242
KELA 201735Z AUTO 15008KT 10SM SCT018 30/26 A2997 RMK AO2 LTG DSNT NW T03040261
KELA 201715Z AUTO 16009KT 10SM SCT018 SCT026 30/26 A2998 RMK AO2 LTG DSNT E SE AND NW T03000260
KELA 201655Z AUTO 15009KT 10SM BKN016 BKN023 31/27 A2998 RMK AO2 LTG DSNT E SE AND NW T03060265
KELA 201635Z AUTO 15006KT 10SM SCT014 BKN021 30/26 A2999 RMK AO2 LTG DSNT E T02980262
KELA 201615Z AUTO 16009KT 10SM SCT014 30/27 A2999 RMK AO2 LTG DSNT S T03010266
KELA 201555Z AUTO 16006KT 10SM CLR 29/27 A2999 RMK AO2 T02900267
KELA 201535Z AUTO 14006KT 10SM CLR 29/27 A2999 RMK AO2 LTG DSNT W T02860267
KELA 201515Z AUTO 15006KT 10SM CLR 28/27 A2998 RMK AO2 T02810265
KELA 201455Z AUTO 15005KT 10SM CLR 28/26 A2997 RMK AO2 LTG DSNT SE 60031 T02780264
KELA 201435Z AUTO 14005KT 10SM CLR 28/26 A2997 RMK AO2 LTG DSNT N T02760264
KELA 201415Z AUTO 13004KT 10SM TS BKN015 BKN022 27/26 A2997 RMK AO2 LTG DSNT N AND NW T02660259
KELA 201355Z AUTO 12003KT 1SM -RA OVC015 26/25 A2997 RMK AO2 VIS 1/4V5 P0031 T02610253
KELA 201335Z AUTO 13004KT 5SM BR SCT017 SCT025 SCT033 26/25 A2996 RMK AO2 T02570251
KELA 201315Z AUTO 13003KT 4SM BR CLR 25/25 A2995 RMK AO2 T02520247
KELA 201255Z AUTO 10003KT 4SM BR SCT015 SCT021 25/25 A2995 RMK AO2 T02500245
KELA 201235Z AUTO 00000KT 4SM BR BKN015 BKN023 BKN029 25/24 A2994 RMK AO2 T02460242
KELA 201215Z AUTO 10003KT 4SM BR BKN017 BKN023 BKN028 25/24 A2994 RMK AO2 T02450240
KELA 201155Z AUTO 10003KT 5SM BR SCT019 SCT029 24/24 A2994 RMK AO2 LTG DSNT W T02420238 10250 20236
KELA 201135Z AUTO 00000KT 5SM BR CLR 24/24 A2994 RMK AO2 T02410237
KELA 201115Z AUTO 10003KT 5SM BR CLR 24/24 A2993 RMK AO2 T02420238
KELA 201055Z AUTO 00000KT 5SM BR CLR 24/24 A2993 RMK AO2 T02400236
KELA 201035Z AUTO 00000KT 7SM CLR 24/24 A2993 RMK AO2 T02410237
KELA 201015Z AUTO 00000KT 7SM CLR 24/24 A2993 RMK AO2 T02410237
KELA 200955Z AUTO 00000KT 7SM SCT021 24/24 A2993 RMK AO2 T02410236
KELA 200935Z AUTO 00000KT 7SM BKN019 BKN024 24/24 A2993 RMK AO2 T02420237
KELA 200915Z AUTO 00000KT 5SM BR BKN017 24/24 A2994 RMK AO2 T02400236
KELA 200855Z AUTO 05004KT 5SM BR SCT015 24/23 A2994 RMK AO2 T02370234
KELA 200835Z AUTO 00000KT 7SM CLR 25/24 A2994 RMK AO2 T02450240
KELA 200815Z AUTO 00000KT 7SM CLR 25/24 A2994 RMK AO2 T02450240
KELA 200755Z AUTO 00000KT 7SM CLR 25/24 A2995 RMK AO2 T02460241
KELA 200735Z AUTO 00000KT 7SM CLR 25/24 A2995 RMK AO2 T02460241
KELA 200715Z AUTO 00000KT 7SM CLR 25/24 A2995 RMK AO2 T02450240
KELA 200655Z AUTO 00000KT 10SM CLR 25/24 A2995 RMK AO2 T02460241
KELA 200635Z AUTO 00000KT 10SM CLR 25/24 A2995 RMK AO2 T02450240
KELA 200615Z AUTO 00000KT 10SM CLR 25/24 A2995 RMK AO2 T02480241
KELA 200555Z AUTO 00000KT 10SM CLR 25/24 A2995 RMK AO2 T02500241 10311 20248 403400230